sensor_id;sensor_type;location;lat;lon;timestamp;pressure;altitude;pressure_sealevel;temperature;humidity
25759;BME280;13604;52.496;13.456;2023-08-31T00:01:38;100107.03;;;14.55;100.00
25759;BME280;13604;52.496;13.456;2023-08-31T00:04:04;100107.06;;;14.57;100.00
25759;BME280;13604;52.496;13.456;2023-08-31T00:06:30;100093.84;;;14.50;100.00
25759;BME280;13604;52.496;13.456;2023-08-31T00:08:55;100108.78;;;14.54;100.00
25759;BME280;13604;52.496;13.456;2023-08-31T00:11:20;100115.94;;;14.62;100.00
25759;BME280;13604;52.496;13.456;2023-08-31T00:13:46;100111.56;;;14.61;100.00
25759;BME280;13604;52.496;13.456;2023-08-31T00:16:11;100091.19;;;14.49;100.00
25759;BME280;13604;52.496;13.456;2023-08-31T00:18:37;100106.94;;;14.50;100.00
25759;BME280;13604;52.496;13.456;2023-08-31T00:21:03;100090.44;;;14.54;100.00
25759;BME280;13604;52.496;13.456;2023-08-31T00:23:29;100112.44;;;14.61;100.00
25759;BME280;13604;52.496;13.456;2023-08-31T00:25:54;100074.47;;;14.42;100.00
25759;BME280;13604;52.496;13.456;2023-08-31T00:28:22;100094.75;;;14.51;100.00
25759;BME280;13604;52.496;13.456;2023-08-31T00:30:47;100104.41;;;14.55;100.00
25759;BME280;13604;52.496;13.456;2023-08-31T00:33:14;100099.13;;;14.52;100.00
25759;BME280;13604;52.496;13.456;2023-08-31T00:35:39;100089.50;;;14.51;100.00
25759;BME280;13604;52.496;13.456;2023-08-31T00:38:09;100093.91;;;14.53;100.00
25759;BME280;13604;52.496;13.456;2023-08-31T00:40:38;100071.06;;;14.46;100.00
25759;BME280;13604;52.496;13.456;2023-08-31T00:43:06;100091.25;;;14.52;100.00
25759;BME280;13604;52.496;13.456;2023-08-31T00:45:32;100091.78;;;14.34;100.00
25759;BME280;13604;52.496;13.456;2023-08-31T00:47:58;100079.63;;;14.36;100.00
25759;BME280;13604;52.496;13.456;2023-08-31T00:50:23;100077.97;;;14.41;100.00
25759;BME280;13604;52.496;13.456;2023-08-31T00:52:48;100072.66;;;14.38;100.00
25759;BME280;13604;52.496;13.456;2023-08-31T00:55:14;100086.56;;;14.35;100.00
25759;BME280;13604;52.496;13.456;2023-08-31T00:57:39;100098.03;;;14.39;100.00
25759;BME280;13604;52.496;13.456;2023-08-31T01:00:06;100094.38;;;14.31;100.00
25759;BME280;13604;52.496;13.456;2023-08-31T01:02:47;100106.44;;;14.24;100.00
25759;BME280;13604;52.496;13.456;2023-08-31T01:08:26;100091.50;;;14.18;100.00
25759;BME280;13604;52.496;13.456;2023-08-31T01:11:19;100107.38;;;14.26;100.00
25759;BME280;13604;52.496;13.456;2023-08-31T01:13:51;100094.09;;;14.17;100.00
25759;BME280;13604;52.496;13.456;2023-08-31T01:16:18;100105.63;;;14.27;100.00
25759;BME280;13604;52.496;13.456;2023-08-31T01:18:46;100110.03;;;14.28;100.00
25759;BME280;13604;52.496;13.456;2023-08-31T01:21:25;100110.88;;;14.27;100.00
25759;BME280;13604;52.496;13.456;2023-08-31T01:23:56;100113.41;;;14.24;100.00
25759;BME280;13604;52.496;13.456;2023-08-31T01:26:24;100129.09;;;14.22;100.00
25759;BME280;13604;52.496;13.456;2023-08-31T01:28:51;100121.06;;;14.13;100.00
25759;BME280;13604;52.496;13.456;2023-08-31T01:31:16;100125.63;;;14.23;100.00
25759;BME280;13604;52.496;13.456;2023-08-31T01:33:42;100115.06;;;14.18;100.00
25759;BME280;13604;52.496;13.456;2023-08-31T01:36:29;100132.63;;;14.24;100.00
25759;BME280;13604;52.496;13.456;2023-08-31T01:39:15;100127.31;;;14.20;100.00
25759;BME280;13604;52.496;13.456;2023-08-31T01:41:46;100131.72;;;14.22;100.00
25759;BME280;13604;52.496;13.456;2023-08-31T01:44:15;100138.69;;;14.22;100.00
25759;BME280;13604;52.496;13.456;2023-08-31T01:46:42;100137.84;;;14.24;100.00
25759;BME280;13604;52.496;13.456;2023-08-31T01:49:09;100139.59;;;14.24;100.00
25759;BME280;13604;52.496;13.456;2023-08-31T01:51:35;100126.34;;;14.16;100.00
25759;BME280;13604;52.496;13.456;2023-08-31T01:54:01;100118.25;;;14.04;100.00
25759;BME280;13604;52.496;13.456;2023-08-31T01:56:26;100122.69;;;14.06;100.00
25759;BME280;13604;52.496;13.456;2023-08-31T01:58:52;100141.00;;;14.08;100.00
25759;BME280;13604;52.496;13.456;2023-08-31T02:01:17;100139.16;;;14.02;100.00
25759;BME280;13604;52.496;13.456;2023-08-31T02:03:43;100125.81;;;13.90;100.00
25759;BME280;13604;52.496;13.456;2023-08-31T02:06:08;100155.66;;;13.99;100.00
25759;BME280;13604;52.496;13.456;2023-08-31T02:08:33;100150.44;;;13.99;100.00
25759;BME280;13604;52.496;13.456;2023-08-31T02:10:59;100153.66;;;13.88;100.00
25759;BME280;13604;52.496;13.456;2023-08-31T02:13:24;100154.44;;;13.82;100.00
25759;BME280;13604;52.496;13.456;2023-08-31T02:15:53;100163.94;;;13.78;100.00
25759;BME280;13604;52.496;13.456;2023-08-31T02:18:18;100170.91;;;13.78;100.00
25759;BME280;13604;52.496;13.456;2023-08-31T02:20:44;100165.38;;;13.64;100.00
25759;BME280;13604;52.496;13.456;2023-08-31T02:23:09;100174.13;;;13.66;100.00
25759;BME280;13604;52.496;13.456;2023-08-31T02:25:34;100186.19;;;13.59;100.00
25759;BME280;13604;52.496;13.456;2023-08-31T02:28:00;100167.78;;;13.56;100.00
25759;BME280;13604;52.496;13.456;2023-08-31T02:30:25;100178.22;;;13.55;100.00
25759;BME280;13604;52.496;13.456;2023-08-31T02:32:50;100156.94;;;13.39;100.00
25759;BME280;13604;52.496;13.456;2023-08-31T02:35:15;100179.69;;;13.43;100.00
25759;BME280;13604;52.496;13.456;2023-08-31T02:37:41;100183.09;;;13.39;100.00
25759;BME280;13604;52.496;13.456;2023-08-31T02:40:06;100178.44;;;13.29;100.00
25759;BME280;13604;52.496;13.456;2023-08-31T02:42:33;100184.69;;;13.34;100.00
25759;BME280;13604;52.496;13.456;2023-08-31T02:44:58;100189.03;;;13.34;100.00
25759;BME280;13604;52.496;13.456;2023-08-31T02:47:23;100182.09;;;13.34;100.00
25759;BME280;13604;52.496;13.456;2023-08-31T02:49:49;100193.22;;;13.29;100.00
25759;BME280;13604;52.496;13.456;2023-08-31T02:52:14;100197.28;;;13.17;100.00
25759;BME280;13604;52.496;13.456;2023-08-31T02:54:40;100192.94;;;13.16;100.00
25759;BME280;13604;52.496;13.456;2023-08-31T02:57:05;100191.28;;;13.20;100.00
25759;BME280;13604;52.496;13.456;2023-08-31T02:59:30;100185.84;;;13.12;100.00
25759;BME280;13604;52.496;13.456;2023-08-31T03:01:56;100197.28;;;13.16;100.00
25759;BME280;13604;52.496;13.456;2023-08-31T03:04:21;100195.47;;;13.13;100.00
25759;BME280;13604;52.496;13.456;2023-08-31T03:06:46;100204.09;;;13.11;100.00
25759;BME280;13604;52.496;13.456;2023-08-31T03:09:12;100202.38;;;13.11;100.00
25759;BME280;13604;52.496;13.456;2023-08-31T03:11:38;100181.97;;;12.96;100.00
25759;BME280;13604;52.496;13.456;2023-08-31T03:14:03;100202.22;;;13.05;100.00
25759;BME280;13604;52.496;13.456;2023-08-31T03:16:29;100199.50;;;13.02;100.00
25759;BME280;13604;52.496;13.456;2023-08-31T03:18:54;100214.31;;;13.01;100.00
25759;BME280;13604;52.496;13.456;2023-08-31T03:21:19;100198.56;;;12.98;100.00
25759;BME280;13604;52.496;13.456;2023-08-31T03:23:45;100197.56;;;12.93;100.00
25759;BME280;13604;52.496;13.456;2023-08-31T03:26:10;100201.66;;;12.83;100.00
25759;BME280;13604;52.496;13.456;2023-08-31T03:28:35;100209.34;;;12.79;100.00
25759;BME280;13604;52.496;13.456;2023-08-31T03:31:01;100214.66;;;12.82;100.00
25759;BME280;13604;52.496;13.456;2023-08-31T03:33:26;100210.13;;;12.76;100.00
25759;BME280;13604;52.496;13.456;2023-08-31T03:35:54;100201.50;;;12.79;100.00
25759;BME280;13604;52.496;13.456;2023-08-31T03:38:19;100208.72;;;12.87;100.00
25759;BME280;13604;52.496;13.456;2023-08-31T03:40:57;100213.16;;;12.90;100.00
25759;BME280;13604;52.496;13.456;2023-08-31T03:43:22;100212.31;;;12.93;100.00
25759;BME280;13604;52.496;13.456;2023-08-31T03:45:48;100220.25;;;12.96;100.00
25759;BME280;13604;52.496;13.456;2023-08-31T03:48:14;100224.69;;;12.98;100.00
25759;BME280;13604;52.496;13.456;2023-08-31T03:50:39;100219.56;;;13.01;100.00
25759;BME280;13604;52.496;13.456;2023-08-31T03:53:05;100205.19;;;12.85;100.00
25759;BME280;13604;52.496;13.456;2023-08-31T03:55:30;100227.34;;;13.00;100.00
25759;BME280;13604;52.496;13.456;2023-08-31T03:57:55;100225.53;;;12.97;100.00
25759;BME280;13604;52.496;13.456;2023-08-31T04:00:21;100224.56;;;12.94;100.00
25759;BME280;13604;52.496;13.456;2023-08-31T04:02:46;100228.91;;;12.93;100.00
25759;BME280;13604;52.496;13.456;2023-08-31T04:05:11;100220.16;;;12.93;100.00
25759;BME280;13604;52.496;13.456;2023-08-31T04:07:39;100241.25;;;12.99;100.00
25759;BME280;13604;52.496;13.456;2023-08-31T04:10:04;100224.66;;;12.97;100.00
25759;BME280;13604;52.496;13.456;2023-08-31T04:12:30;100233.38;;;12.97;100.00
25759;BME280;13604;52.496;13.456;2023-08-31T04:14:55;100235.03;;;12.94;100.00
25759;BME280;13604;52.496;13.456;2023-08-31T04:17:21;100235.03;;;12.94;100.00
25759;BME280;13604;52.496;13.456;2023-08-31T04:19:46;100227.88;;;12.86;100.00
25759;BME280;13604;52.496;13.456;2023-08-31T04:22:11;100224.94;;;12.76;100.00
25759;BME280;13604;52.496;13.456;2023-08-31T04:24:36;100245.09;;;12.80;100.00
25759;BME280;13604;52.496;13.456;2023-08-31T04:27:02;100232.78;;;12.76;100.00
25759;BME280;13604;52.496;13.456;2023-08-31T04:29:27;100256.47;;;12.82;100.00
25759;BME280;13604;52.496;13.456;2023-08-31T04:31:53;100254.78;;;12.84;100.00
25759;BME280;13604;52.496;13.456;2023-08-31T04:34:19;100244.09;;;12.75;100.00
25759;BME280;13604;52.496;13.456;2023-08-31T04:36:44;100249.47;;;12.81;100.00
25759;BME280;13604;52.496;13.456;2023-08-31T04:39:10;100254.00;;;12.86;100.00
25759;BME280;13604;52.496;13.456;2023-08-31T04:41:35;100251.44;;;12.88;100.00
25759;BME280;13604;52.496;13.456;2023-08-31T04:44:00;100247.03;;;12.87;100.00
25759;BME280;13604;52.496;13.456;2023-08-31T04:46:25;100233.78;;;12.81;100.00
25759;BME280;13604;52.496;13.456;2023-08-31T04:48:51;100254.09;;;12.89;100.00
25759;BME280;13604;52.496;13.456;2023-08-31T04:51:34;100257.56;;;12.90;100.00
25759;BME280;13604;52.496;13.456;2023-08-31T04:54:02;100251.38;;;12.86;100.00
25759;BME280;13604;52.496;13.456;2023-08-31T04:56:32;100256.88;;;12.97;100.00
25759;BME280;13604;52.496;13.456;2023-08-31T04:59:00;100263.72;;;12.92;100.00
25759;BME280;13604;52.496;13.456;2023-08-31T05:01:26;100265.31;;;12.87;100.00
25759;BME280;13604;52.496;13.456;2023-08-31T05:03:51;100247.81;;;12.84;100.00
25759;BME280;13604;52.496;13.456;2023-08-31T05:06:16;100277.75;;;12.96;100.00
25759;BME280;13604;52.496;13.456;2023-08-31T05:08:42;100264.78;;;12.99;100.00
25759;BME280;13604;52.496;13.456;2023-08-31T05:11:07;100242.91;;;12.95;100.00
25759;BME280;13604;52.496;13.456;2023-08-31T05:13:33;100264.44;;;13.18;100.00
25759;BME280;13604;52.496;13.456;2023-08-31T05:15:59;100269.78;;;13.23;100.00
25759;BME280;13604;52.496;13.456;2023-08-31T05:18:24;100269.88;;;13.26;100.00
25759;BME280;13604;52.496;13.456;2023-08-31T05:20:49;100270.75;;;13.26;100.00
25759;BME280;13604;52.496;13.456;2023-08-31T05:23:15;100250.63;;;13.22;100.00
25759;BME280;13604;52.496;13.456;2023-08-31T05:25:43;100256.31;;;13.39;100.00
25759;BME280;13604;52.496;13.456;2023-08-31T05:28:09;100276.53;;;13.47;100.00
25759;BME280;13604;52.496;13.456;2023-08-31T05:30:34;100266.78;;;13.39;100.00
25759;BME280;13604;52.496;13.456;2023-08-31T05:33:00;100293.19;;;13.50;100.00
25759;BME280;13604;52.496;13.456;2023-08-31T05:35:25;100272.41;;;13.23;100.00
25759;BME280;13604;52.496;13.456;2023-08-31T05:37:51;100284.78;;;13.30;100.00
25759;BME280;13604;52.496;13.456;2023-08-31T05:40:16;100285.84;;;13.35;100.00
25759;BME280;13604;52.496;13.456;2023-08-31T05:42:42;100298.28;;;13.44;100.00
25759;BME280;13604;52.496;13.456;2023-08-31T05:45:08;100308.88;;;13.49;100.00
25759;BME280;13604;52.496;13.456;2023-08-31T05:47:33;100307.19;;;13.51;100.00
25759;BME280;13604;52.496;13.456;2023-08-31T05:49:59;100303.56;;;13.46;100.00
25759;BME280;13604;52.496;13.456;2023-08-31T05:52:25;100306.97;;;13.43;100.00
25759;BME280;13604;52.496;13.456;2023-08-31T05:54:50;100310.28;;;13.36;100.00
25759;BME280;13604;52.496;13.456;2023-08-31T05:57:18;100318.16;;;13.37;100.00
25759;BME280;13604;52.496;13.456;2023-08-31T05:59:44;100310.31;;;13.37;100.00
25759;BME280;13604;52.496;13.456;2023-08-31T06:02:09;100296.50;;;13.43;100.00
25759;BME280;13604;52.496;13.456;2023-08-31T06:04:34;100318.00;;;13.65;100.00
25759;BME280;13604;52.496;13.456;2023-08-31T06:07:00;100293.56;;;13.64;100.00
25759;BME280;13604;52.496;13.456;2023-08-31T06:09:25;100301.66;;;13.75;100.00
25759;BME280;13604;52.496;13.456;2023-08-31T06:11:50;100320.97;;;13.78;100.00
25759;BME280;13604;52.496;13.456;2023-08-31T06:14:15;100321.94;;;13.82;100.00
25759;BME280;13604;52.496;13.456;2023-08-31T06:16:41;100308.72;;;13.77;100.00
25759;BME280;13604;52.496;13.456;2023-08-31T06:19:06;100318.50;;;13.85;100.00
25759;BME280;13604;52.496;13.456;2023-08-31T06:21:32;100339.84;;;14.00;100.00
25759;BME280;13604;52.496;13.456;2023-08-31T06:23:57;100334.44;;;13.94;100.00
25759;BME280;13604;52.496;13.456;2023-08-31T06:26:22;100322.69;;;13.78;100.00
25759;BME280;13604;52.496;13.456;2023-08-31T06:28:48;100309.47;;;13.72;100.00
25759;BME280;13604;52.496;13.456;2023-08-31T06:31:13;100337.47;;;13.76;100.00
25759;BME280;13604;52.496;13.456;2023-08-31T06:33:38;100320.78;;;13.71;100.00
25759;BME280;13604;52.496;13.456;2023-08-31T06:36:04;100327.91;;;13.78;100.00
25759;BME280;13604;52.496;13.456;2023-08-31T06:38:29;100347.59;;;13.97;100.00
25759;BME280;13604;52.496;13.456;2023-08-31T06:40:54;100333.47;;;13.90;100.00
25759;BME280;13604;52.496;13.456;2023-08-31T06:43:24;100324.84;;;13.94;100.00
25759;BME280;13604;52.496;13.456;2023-08-31T06:45:49;100351.59;;;14.17;100.00
25759;BME280;13604;52.496;13.456;2023-08-31T06:48:14;100347.19;;;14.15;100.00
25759;BME280;13604;52.496;13.456;2023-08-31T06:50:39;100340.38;;;14.23;100.00
25759;BME280;13604;52.496;13.456;2023-08-31T06:53:05;100356.69;;;14.48;100.00
25759;BME280;13604;52.496;13.456;2023-08-31T06:55:31;100361.03;;;14.47;100.00
25759;BME280;13604;52.496;13.456;2023-08-31T06:57:57;100341.75;;;14.45;100.00
25759;BME280;13604;52.496;13.456;2023-08-31T07:00:22;100369.06;;;14.55;100.00
25759;BME280;13604;52.496;13.456;2023-08-31T07:02:47;100360.03;;;14.42;100.00
25759;BME280;13604;52.496;13.456;2023-08-31T07:05:13;100354.75;;;14.41;100.00
25759;BME280;13604;52.496;13.456;2023-08-31T07:07:38;100365.22;;;14.41;100.00
25759;BME280;13604;52.496;13.456;2023-08-31T07:10:04;100372.44;;;14.49;100.00
25759;BME280;13604;52.496;13.456;2023-08-31T07:12:31;100371.53;;;14.49;100.00
25759;BME280;13604;52.496;13.456;2023-08-31T07:14:56;100373.38;;;14.53;100.00
25759;BME280;13604;52.496;13.456;2023-08-31T07:17:21;100369.75;;;14.46;100.00
25759;BME280;13604;52.496;13.456;2023-08-31T07:19:46;100375.94;;;14.50;100.00
25759;BME280;13604;52.496;13.456;2023-08-31T07:22:12;100365.34;;;14.45;100.00
25759;BME280;13604;52.496;13.456;2023-08-31T07:24:37;100381.25;;;14.53;100.00
25759;BME280;13604;52.496;13.456;2023-08-31T07:27:03;100378.00;;;14.63;100.00
25759;BME280;13604;52.496;13.456;2023-08-31T07:29:28;100367.16;;;14.48;100.00
25759;BME280;13604;52.496;13.456;2023-08-31T07:31:53;100374.25;;;14.53;100.00
25759;BME280;13604;52.496;13.456;2023-08-31T07:34:19;100392.16;;;14.70;100.00
25759;BME280;13604;52.496;13.456;2023-08-31T07:36:44;100377.06;;;14.60;100.00
25759;BME280;13604;52.496;13.456;2023-08-31T07:39:09;100404.63;;;14.82;100.00
25759;BME280;13604;52.496;13.456;2023-08-31T07:41:35;100404.06;;;14.94;98.80
25759;BME280;13604;52.496;13.456;2023-08-31T07:44:00;100404.19;;;15.01;97.95
25759;BME280;13604;52.496;13.456;2023-08-31T07:46:25;100389.97;;;14.90;96.79
25759;BME280;13604;52.496;13.456;2023-08-31T07:48:51;100405.94;;;15.01;97.40
25759;BME280;13604;52.496;13.456;2023-08-31T07:51:16;100410.09;;;15.32;97.44
25759;BME280;13604;52.496;13.456;2023-08-31T07:53:41;100391.28;;;15.11;95.41
25759;BME280;13604;52.496;13.456;2023-08-31T07:56:07;100398.84;;;14.95;95.01
25759;BME280;13604;52.496;13.456;2023-08-31T07:58:32;100410.56;;;15.13;94.74
25759;BME280;13604;52.496;13.456;2023-08-31T08:00:57;100427.03;;;15.48;92.16
25759;BME280;13604;52.496;13.456;2023-08-31T08:03:23;100398.81;;;15.36;91.47
25759;BME280;13604;52.496;13.456;2023-08-31T08:05:48;100407.91;;;15.54;89.70
25759;BME280;13604;52.496;13.456;2023-08-31T08:08:14;100425.03;;;15.35;87.16
25759;BME280;13604;52.496;13.456;2023-08-31T08:10:39;100440.00;;;15.40;87.86
25759;BME280;13604;52.496;13.456;2023-08-31T08:13:05;100433.78;;;15.35;86.29
25759;BME280;13604;52.496;13.456;2023-08-31T08:15:30;100436.56;;;15.43;87.96
25759;BME280;13604;52.496;13.456;2023-08-31T08:17:56;100427.03;;;15.48;84.33
25759;BME280;13604;52.496;13.456;2023-08-31T08:20:23;100438.19;;;15.79;84.90
25759;BME280;13604;52.496;13.456;2023-08-31T08:22:48;100428.50;;;16.82;82.02
25759;BME280;13604;52.496;13.456;2023-08-31T08:25:17;100430.22;;;18.24;76.48
25759;BME280;13604;52.496;13.456;2023-08-31T08:27:42;100409.44;;;18.64;70.95
25759;BME280;13604;52.496;13.456;2023-08-31T08:30:07;100425.25;;;18.62;68.54
25759;BME280;13604;52.496;13.456;2023-08-31T08:32:33;100423.00;;;18.04;70.47
25759;BME280;13604;52.496;13.456;2023-08-31T08:34:59;100439.28;;;17.67;73.10
25759;BME280;13604;52.496;13.456;2023-08-31T08:37:24;100440.38;;;17.15;73.59
25759;BME280;13604;52.496;13.456;2023-08-31T08:39:50;100425.00;;;16.83;75.34
25759;BME280;13604;52.496;13.456;2023-08-31T08:42:17;100436.13;;;16.65;75.43
25759;BME280;13604;52.496;13.456;2023-08-31T08:44:43;100430.53;;;17.00;74.84
25759;BME280;13604;52.496;13.456;2023-08-31T08:47:09;100445.34;;;17.59;71.67
25759;BME280;13604;52.496;13.456;2023-08-31T08:49:35;100436.78;;;18.75;65.66
25759;BME280;13604;52.496;13.456;2023-08-31T08:52:01;100417.97;;;19.85;59.74
25759;BME280;13604;52.496;13.456;2023-08-31T08:54:27;100420.56;;;21.01;55.51
25759;BME280;13604;52.496;13.456;2023-08-31T08:56:53;100426.81;;;20.63;56.25
25759;BME280;13604;52.496;13.456;2023-08-31T08:59:18;100436.50;;;20.21;55.51
25759;BME280;13604;52.496;13.456;2023-08-31T09:01:44;100438.91;;;19.44;59.24
25759;BME280;13604;52.496;13.456;2023-08-31T09:04:09;100444.66;;;18.69;60.68
25759;BME280;13604;52.496;13.456;2023-08-31T09:06:35;100433.53;;;18.04;63.13
25759;BME280;13604;52.496;13.456;2023-08-31T09:09:00;100435.72;;;17.62;64.98
25759;BME280;13604;52.496;13.456;2023-08-31T09:11:26;100419.50;;;17.28;66.45
25759;BME280;13604;52.496;13.456;2023-08-31T09:13:52;100433.91;;;17.57;67.06
25759;BME280;13604;52.496;13.456;2023-08-31T09:16:26;100440.69;;;17.38;66.78
25759;BME280;13604;52.496;13.456;2023-08-31T09:18:51;100441.22;;;17.12;68.21
25759;BME280;13604;52.496;13.456;2023-08-31T09:21:17;100442.16;;;17.14;67.85
25759;BME280;13604;52.496;13.456;2023-08-31T09:23:47;100424.44;;;18.72;63.73
25759;BME280;13604;52.496;13.456;2023-08-31T09:26:12;100438.97;;;21.40;54.04
25759;BME280;13604;52.496;13.456;2023-08-31T09:28:40;100441.91;;;22.45;50.24
25759;BME280;13604;52.496;13.456;2023-08-31T09:31:07;100431.88;;;21.48;51.72
25759;BME280;13604;52.496;13.456;2023-08-31T09:33:34;100443.56;;;20.40;54.21
25759;BME280;13604;52.496;13.456;2023-08-31T09:36:01;100422.16;;;19.36;56.51
25759;BME280;13604;52.496;13.456;2023-08-31T09:38:26;100448.19;;;18.74;59.59
25759;BME280;13604;52.496;13.456;2023-08-31T09:40:52;100439.47;;;17.83;62.67
25759;BME280;13604;52.496;13.456;2023-08-31T09:43:28;100451.28;;;17.42;64.82
25759;BME280;13604;52.496;13.456;2023-08-31T09:45:53;100428.72;;;17.66;65.40
25759;BME280;13604;52.496;13.456;2023-08-31T09:48:19;100434.25;;;18.89;61.58
25759;BME280;13604;52.496;13.456;2023-08-31T09:50:45;100434.53;;;21.53;53.18
25759;BME280;13604;52.496;13.456;2023-08-31T09:53:16;100427.94;;;23.87;46.72
25759;BME280;13604;52.496;13.456;2023-08-31T09:55:42;100426.66;;;25.14;42.87
25759;BME280;13604;52.496;13.456;2023-08-31T10:00:36;100413.38;;;24.12;nan
25759;BME280;13604;52.496;13.456;2023-08-31T10:05:28;100414.22;;;27.65;nan
25759;BME280;13604;52.496;13.456;2023-08-31T10:07:54;100412.31;;;26.75;nan
25759;BME280;13604;52.496;13.456;2023-08-31T10:10:20;100416.66;;;26.79;nan
25759;BME280;13604;52.496;13.456;2023-08-31T10:12:48;100423.28;;;26.62;nan
25759;BME280;13604;52.496;13.456;2023-08-31T10:15:15;100427.81;;;25.01;nan
25759;BME280;13604;52.496;13.456;2023-08-31T10:17:42;100425.66;;;26.04;nan
25759;BME280;13604;52.496;13.456;2023-08-31T10:20:08;100432.19;;;26.97;nan
25759;BME280;13604;52.496;13.456;2023-08-31T10:22:36;100428.63;;;27.60;nan
25759;BME280;13604;52.496;13.456;2023-08-31T10:25:04;100414.94;;;28.54;nan
25759;BME280;13604;52.496;13.456;2023-08-31T10:27:40;100434.31;;;28.07;nan
25759;BME280;13604;52.496;13.456;2023-08-31T10:38:24;100429.09;;;24.80;nan
25759;BME280;13604;52.496;13.456;2023-08-31T10:41:20;100462.56;;;21.94;nan
25759;BME280;13604;52.496;13.456;2023-08-31T10:43:53;100472.44;;;19.65;nan
25759;BME280;13604;52.496;13.456;2023-08-31T10:46:32;100483.56;;;18.02;nan
25759;BME280;13604;52.496;13.456;2023-08-31T10:49:12;100490.19;;;16.49;nan
25759;BME280;13604;52.496;13.456;2023-08-31T10:52:24;100495.13;;;15.42;nan
25759;BME280;13604;52.496;13.456;2023-08-31T10:54:26;100488.91;;;14.61;nan
25759;BME280;13604;52.496;13.456;2023-08-31T10:59:26;100482.66;;;13.89;nan
25759;BME280;13604;52.496;13.456;2023-08-31T11:02:42;100473.28;;;13.65;92.50
25759;BME280;13604;52.496;13.456;2023-08-31T11:05:18;100479.63;;;13.73;94.74
25759;BME280;13604;52.496;13.456;2023-08-31T11:07:45;100465.66;;;13.74;98.01
25759;BME280;13604;52.496;13.456;2023-08-31T11:10:15;100472.84;;;14.13;100.00
25759;BME280;13604;52.496;13.456;2023-08-31T11:12:44;100475.34;;;14.44;98.08
25759;BME280;13604;52.496;13.456;2023-08-31T11:15:13;100464.94;;;14.80;94.97
25759;BME280;13604;52.496;13.456;2023-08-31T11:17:40;100464.53;;;15.03;94.85
25759;BME280;13604;52.496;13.456;2023-08-31T11:20:06;100462.94;;;15.93;91.10
25759;BME280;13604;52.496;13.456;2023-08-31T11:22:34;100462.53;;;18.04;81.56
25759;BME280;13604;52.496;13.456;2023-08-31T11:25:03;100439.09;;;21.01;65.42
25759;BME280;13604;52.496;13.456;2023-08-31T11:27:28;100457.72;;;23.46;51.74
25759;BME280;13604;52.496;13.456;2023-08-31T11:29:53;100443.03;;;23.85;52.35
25759;BME280;13604;52.496;13.456;2023-08-31T11:32:19;100428.56;;;26.67;41.43
25759;BME280;13604;52.496;13.456;2023-08-31T11:34:45;100433.25;;;27.23;38.42
25759;BME280;13604;52.496;13.456;2023-08-31T11:37:12;100445.16;;;30.04;36.42
25759;BME280;13604;52.496;13.456;2023-08-31T11:39:42;100435.34;;;32.05;31.20
25759;BME280;13604;52.496;13.456;2023-08-31T11:42:08;100442.03;;;33.05;29.96
25759;BME280;13604;52.496;13.456;2023-08-31T11:44:33;100441.97;;;34.65;28.11
25759;BME280;13604;52.496;13.456;2023-08-31T11:46:59;100461.66;;;34.83;27.16
25759;BME280;13604;52.496;13.456;2023-08-31T11:49:26;100438.47;;;36.49;25.31
25759;BME280;13604;52.496;13.456;2023-08-31T11:51:52;100435.91;;;36.33;23.90
25759;BME280;13604;52.496;13.456;2023-08-31T11:54:17;100433.34;;;36.84;24.11
25759;BME280;13604;52.496;13.456;2023-08-31T11:56:44;100436.78;;;35.65;23.90
25759;BME280;13604;52.496;13.456;2023-08-31T11:59:14;100442.56;;;33.11;26.93
25759;BME280;13604;52.496;13.456;2023-08-31T12:01:41;100433.16;;;30.57;30.88
25759;BME280;13604;52.496;13.456;2023-08-31T12:04:11;100447.41;;;27.88;34.14
25759;BME280;13604;52.496;13.456;2023-08-31T12:06:37;100452.41;;;25.14;38.44
25759;BME280;13604;52.496;13.456;2023-08-31T12:09:02;100444.47;;;22.53;46.92
25759;BME280;13604;52.496;13.456;2023-08-31T12:11:29;100443.56;;;20.81;54.07
25759;BME280;13604;52.496;13.456;2023-08-31T12:13:59;100446.72;;;19.19;62.48
25759;BME280;13604;52.496;13.456;2023-08-31T12:16:24;100448.13;;;17.04;89.03
25759;BME280;13604;52.496;13.456;2023-08-31T12:18:50;100435.59;;;16.31;97.90
25759;BME280;13604;52.496;13.456;2023-08-31T12:21:19;100456.78;;;17.62;100.00
25759;BME280;13604;52.496;13.456;2023-08-31T12:23:44;100446.78;;;19.30;89.81
25759;BME280;13604;52.496;13.456;2023-08-31T12:26:10;100447.94;;;20.08;83.99
25759;BME280;13604;52.496;13.456;2023-08-31T12:28:35;100431.91;;;21.46;80.38
25759;BME280;13604;52.496;13.456;2023-08-31T12:31:00;100443.38;;;22.77;77.39
25759;BME280;13604;52.496;13.456;2023-08-31T12:33:26;100447.72;;;24.25;72.54
25759;BME280;13604;52.496;13.456;2023-08-31T12:35:51;100458.75;;;25.08;63.91
25759;BME280;13604;52.496;13.456;2023-08-31T12:38:16;100455.03;;;24.11;63.33
25759;BME280;13604;52.496;13.456;2023-08-31T12:40:42;100456.09;;;22.42;67.52
25759;BME280;13604;52.496;13.456;2023-08-31T12:43:08;100455.00;;;20.92;72.30
25759;BME280;13604;52.496;13.456;2023-08-31T12:45:35;100462.75;;;19.59;77.98
25759;BME280;13604;52.496;13.456;2023-08-31T12:48:01;100463.78;;;18.43;83.97
25759;BME280;13604;52.496;13.456;2023-08-31T12:50:29;100453.63;;;17.21;87.33
25759;BME280;13604;52.496;13.456;2023-08-31T12:52:55;100473.88;;;16.68;92.61